MAW weather

Malden Regional Airport
Malden, Missouri, United States

Public forecast

Using degrees Fahrenheit for public forecast. Weather courtesy of forecast.io.

Closest aviation weather report (METAR) to Malden Regional Airport

Closest report is Poplar Bluff Municipal Airport, 19.1 nm (35.4 km) WNW. Retrieved 2020/05/30 01:53 UTC (56 minutes ago):

KPOF 300153Z AUTO 33005KT 10SM CLR 21/14 A3008 RMK AO2 SLP182 T02110139

Closest aviation forecast (TAF) to Malden Regional Airport

Closest forecast is Cape Girardeau Regional Airport, 42.6 nm (78.9 km) NNE. Retrieved 2020-05-30 00:22 UTC (2 hours ago):

TAF KCGI 292320Z 3000/3024 34007KT P6SM FEW200 FM300500 VRB04KT P6SM SKC FM301300 35006KT P6SM SKC